sensor_id;sensor_type;location;lat;lon;timestamp;pressure;altitude;pressure_sealevel;temperature;humidity
55912;BME280;41823;45.534;-73.332;2022-10-16T00:01:22;100580.53;;;33.32;12.78
55912;BME280;41823;45.534;-73.332;2022-10-16T00:03:51;100576.86;;;33.55;12.52
55912;BME280;41823;45.534;-73.332;2022-10-16T00:06:21;100578.43;;;33.87;12.45
55912;BME280;41823;45.534;-73.332;2022-10-16T00:08:50;100578.80;;;33.79;12.41
55912;BME280;41823;45.534;-73.332;2022-10-16T00:11:21;100580.10;;;33.24;12.66
55912;BME280;41823;45.534;-73.332;2022-10-16T00:13:53;100583.26;;;33.32;12.50
55912;BME280;41823;45.534;-73.332;2022-10-16T00:16:22;100584.95;;;33.46;12.55
55912;BME280;41823;45.534;-73.332;2022-10-16T00:18:49;100588.19;;;33.66;12.49
55912;BME280;41823;45.534;-73.332;2022-10-16T00:21:21;100584.63;;;33.73;12.47
55912;BME280;41823;45.534;-73.332;2022-10-16T00:23:51;100591.00;;;33.37;12.50
55912;BME280;41823;45.534;-73.332;2022-10-16T00:26:19;100589.73;;;33.42;12.39
55912;BME280;41823;45.534;-73.332;2022-10-16T00:28:49;100587.86;;;33.60;12.34
55912;BME280;41823;45.534;-73.332;2022-10-16T00:31:19;100590.08;;;33.42;12.40
55912;BME280;41823;45.534;-73.332;2022-10-16T00:33:47;100586.73;;;33.19;12.31
55912;BME280;41823;45.534;-73.332;2022-10-16T00:36:18;100588.94;;;33.40;12.18
55912;BME280;41823;45.534;-73.332;2022-10-16T00:38:46;100589.09;;;33.54;12.16
55912;BME280;41823;45.534;-73.332;2022-10-16T00:41:16;100586.21;;;33.46;11.97
55912;BME280;41823;45.534;-73.332;2022-10-16T00:43:46;100586.52;;;33.37;12.03
55912;BME280;41823;45.534;-73.332;2022-10-16T00:46:19;100592.58;;;33.37;11.97
55912;BME280;41823;45.534;-73.332;2022-10-16T00:48:50;100597.32;;;33.45;12.02
55912;BME280;41823;45.534;-73.332;2022-10-16T00:51:22;100601.97;;;33.49;12.15
55912;BME280;41823;45.534;-73.332;2022-10-16T00:53:51;100607.35;;;33.00;12.41
55912;BME280;41823;45.534;-73.332;2022-10-16T00:56:19;100609.86;;;33.31;12.38
55912;BME280;41823;45.534;-73.332;2022-10-16T00:58:47;100615.07;;;33.31;12.33
55912;BME280;41823;45.534;-73.332;2022-10-16T01:01:15;100611.58;;;33.18;12.49
55912;BME280;41823;45.534;-73.332;2022-10-16T01:03:43;100612.03;;;33.55;12.35
55912;BME280;41823;45.534;-73.332;2022-10-16T01:06:22;100621.60;;;33.22;12.47
55912;BME280;41823;45.534;-73.332;2022-10-16T01:09:00;100620.03;;;33.11;12.40
55912;BME280;41823;45.534;-73.332;2022-10-16T01:11:33;100621.45;;;33.56;12.18
55912;BME280;41823;45.534;-73.332;2022-10-16T01:14:11;100630.01;;;33.53;12.34
55912;BME280;41823;45.534;-73.332;2022-10-16T01:16:46;100634.65;;;33.32;12.13
55912;BME280;41823;45.534;-73.332;2022-10-16T01:19:24;100634.47;;;33.03;12.14
55912;BME280;41823;45.534;-73.332;2022-10-16T01:21:55;100636.98;;;33.08;12.12
55912;BME280;41823;45.534;-73.332;2022-10-16T01:24:33;100639.73;;;33.61;12.00
55912;BME280;41823;45.534;-73.332;2022-10-16T01:27:12;100646.74;;;33.48;11.89
55912;BME280;41823;45.534;-73.332;2022-10-16T01:29:49;100644.45;;;33.34;12.22
55912;BME280;41823;45.534;-73.332;2022-10-16T01:32:25;100650.37;;;33.33;12.18
55912;BME280;41823;45.534;-73.332;2022-10-16T01:35:01;100648.11;;;33.25;12.26
55912;BME280;41823;45.534;-73.332;2022-10-16T01:37:35;100650.46;;;33.21;12.28
55912;BME280;41823;45.534;-73.332;2022-10-16T01:40:07;100650.23;;;33.37;12.27
55912;BME280;41823;45.534;-73.332;2022-10-16T01:42:40;100651.75;;;33.43;12.47
55912;BME280;41823;45.534;-73.332;2022-10-16T01:45:12;100659.28;;;33.40;12.46
55912;BME280;41823;45.534;-73.332;2022-10-16T01:47:42;100665.44;;;33.37;12.53
55912;BME280;41823;45.534;-73.332;2022-10-16T01:50:12;100668.26;;;33.02;12.65
55912;BME280;41823;45.534;-73.332;2022-10-16T01:52:45;100672.54;;;33.42;12.41
55912;BME280;41823;45.534;-73.332;2022-10-16T01:55:30;100685.05;;;33.20;12.36
55912;BME280;41823;45.534;-73.332;2022-10-16T01:58:02;100687.05;;;33.35;12.29
55912;BME280;41823;45.534;-73.332;2022-10-16T02:00:32;100684.48;;;33.45;12.26
55912;BME280;41823;45.534;-73.332;2022-10-16T02:03:02;100701.40;;;33.42;11.77
55912;BME280;41823;45.534;-73.332;2022-10-16T02:05:36;100698.51;;;33.17;11.87
55912;BME280;41823;45.534;-73.332;2022-10-16T02:08:06;100704.15;;;33.25;11.76
55912;BME280;41823;45.534;-73.332;2022-10-16T02:10:36;100703.20;;;33.33;11.68
55912;BME280;41823;45.534;-73.332;2022-10-16T02:13:09;100711.73;;;33.65;11.37
55912;BME280;41823;45.534;-73.332;2022-10-16T02:15:38;100715.04;;;33.30;11.42
55912;BME280;41823;45.534;-73.332;2022-10-16T02:18:07;100717.86;;;33.37;11.50
55912;BME280;41823;45.534;-73.332;2022-10-16T02:20:40;100726.77;;;33.18;11.70
55912;BME280;41823;45.534;-73.332;2022-10-16T02:23:19;100721.03;;;33.30;10.98
55912;BME280;41823;45.534;-73.332;2022-10-16T02:25:51;100727.84;;;33.23;10.96
55912;BME280;41823;45.534;-73.332;2022-10-16T02:28:26;100723.98;;;33.52;10.82
55912;BME280;41823;45.534;-73.332;2022-10-16T02:30:58;100734.84;;;33.36;10.74
55912;BME280;41823;45.534;-73.332;2022-10-16T02:33:29;100733.73;;;33.40;10.62
55912;BME280;41823;45.534;-73.332;2022-10-16T02:35:58;100741.21;;;33.20;10.71
55912;BME280;41823;45.534;-73.332;2022-10-16T02:38:26;100745.95;;;33.04;10.70
55912;BME280;41823;45.534;-73.332;2022-10-16T02:40:55;100749.22;;;32.94;10.92
55912;BME280;41823;45.534;-73.332;2022-10-16T02:43:25;100748.41;;;32.97;11.02
55912;BME280;41823;45.534;-73.332;2022-10-16T02:45:53;100757.09;;;33.27;10.88
55912;BME280;41823;45.534;-73.332;2022-10-16T02:48:21;100762.80;;;33.34;10.95
55912;BME280;41823;45.534;-73.332;2022-10-16T02:50:49;100764.81;;;33.18;10.68
55912;BME280;41823;45.534;-73.332;2022-10-16T02:53:16;100765.34;;;33.08;10.92
55912;BME280;41823;45.534;-73.332;2022-10-16T02:55:46;100765.15;;;33.51;10.45
55912;BME280;41823;45.534;-73.332;2022-10-16T02:58:14;100768.83;;;33.53;10.30
55912;BME280;41823;45.534;-73.332;2022-10-16T03:00:42;100774.88;;;33.23;10.25
55912;BME280;41823;45.534;-73.332;2022-10-16T03:03:09;100770.28;;;33.42;10.19
55912;BME280;41823;45.534;-73.332;2022-10-16T03:05:37;100776.52;;;33.14;10.26
55912;BME280;41823;45.534;-73.332;2022-10-16T03:08:05;100778.86;;;33.25;10.21
55912;BME280;41823;45.534;-73.332;2022-10-16T03:10:33;100778.07;;;33.11;10.35
55912;BME280;41823;45.534;-73.332;2022-10-16T03:13:01;100771.48;;;33.06;10.53
55912;BME280;41823;45.534;-73.332;2022-10-16T03:15:29;100768.61;;;33.07;10.51
55912;BME280;41823;45.534;-73.332;2022-10-16T03:17:58;100771.46;;;33.06;10.51
55912;BME280;41823;45.534;-73.332;2022-10-16T03:20:26;100777.35;;;32.83;10.41
55912;BME280;41823;45.534;-73.332;2022-10-16T03:22:53;100775.97;;;33.23;10.14
55912;BME280;41823;45.534;-73.332;2022-10-16T03:25:21;100777.69;;;33.06;9.96
55912;BME280;41823;45.534;-73.332;2022-10-16T03:27:49;100784.57;;;33.01;10.06
55912;BME280;41823;45.534;-73.332;2022-10-16T03:30:18;100789.34;;;33.01;9.91
55912;BME280;41823;45.534;-73.332;2022-10-16T03:32:46;100787.22;;;33.11;9.93
55912;BME280;41823;45.534;-73.332;2022-10-16T03:35:13;100790.85;;;32.88;9.82
55912;BME280;41823;45.534;-73.332;2022-10-16T03:37:41;100787.01;;;33.02;9.52
55912;BME280;41823;45.534;-73.332;2022-10-16T03:40:10;100791.95;;;32.79;9.47
55912;BME280;41823;45.534;-73.332;2022-10-16T03:42:37;100795.42;;;32.96;9.47
55912;BME280;41823;45.534;-73.332;2022-10-16T03:45:06;100801.10;;;32.97;9.45
55912;BME280;41823;45.534;-73.332;2022-10-16T03:47:34;100805.37;;;32.92;9.60
55912;BME280;41823;45.534;-73.332;2022-10-16T03:50:02;100807.44;;;33.02;9.53
55912;BME280;41823;45.534;-73.332;2022-10-16T03:52:31;100799.44;;;33.12;9.39
55912;BME280;41823;45.534;-73.332;2022-10-16T03:54:58;100804.17;;;32.95;9.49
55912;BME280;41823;45.534;-73.332;2022-10-16T03:57:27;100807.71;;;32.93;9.38
55912;BME280;41823;45.534;-73.332;2022-10-16T03:59:54;100809.04;;;33.49;9.30
55912;BME280;41823;45.534;-73.332;2022-10-16T04:02:22;100813.55;;;32.93;9.25
55912;BME280;41823;45.534;-73.332;2022-10-16T04:04:50;100818.63;;;32.77;9.28
55912;BME280;41823;45.534;-73.332;2022-10-16T04:07:18;100815.84;;;32.92;9.58
55912;BME280;41823;45.534;-73.332;2022-10-16T04:09:46;100824.91;;;33.23;9.63
55912;BME280;41823;45.534;-73.332;2022-10-16T04:12:14;100827.90;;;32.61;9.58
55912;BME280;41823;45.534;-73.332;2022-10-16T04:14:42;100820.23;;;32.92;9.42
55912;BME280;41823;45.534;-73.332;2022-10-16T04:17:10;100818.72;;;32.74;9.72
55912;BME280;41823;45.534;-73.332;2022-10-16T04:19:38;100815.21;;;33.10;9.66
55912;BME280;41823;45.534;-73.332;2022-10-16T04:22:06;100818.42;;;32.70;9.41
55912;BME280;41823;45.534;-73.332;2022-10-16T04:24:34;100827.79;;;32.99;9.60
55912;BME280;41823;45.534;-73.332;2022-10-16T04:27:02;100826.04;;;32.69;9.59
55912;BME280;41823;45.534;-73.332;2022-10-16T04:29:30;100835.85;;;33.10;9.89
55912;BME280;41823;45.534;-73.332;2022-10-16T04:31:58;100832.62;;;32.76;9.98
55912;BME280;41823;45.534;-73.332;2022-10-16T04:34:26;100842.69;;;32.88;9.89
55912;BME280;41823;45.534;-73.332;2022-10-16T04:36:54;100839.21;;;33.03;9.72
55912;BME280;41823;45.534;-73.332;2022-10-16T04:39:22;100842.96;;;33.20;9.94
55912;BME280;41823;45.534;-73.332;2022-10-16T04:41:49;100849.49;;;33.19;9.67
55912;BME280;41823;45.534;-73.332;2022-10-16T04:44:17;100852.26;;;32.84;9.77
55912;BME280;41823;45.534;-73.332;2022-10-16T04:46:45;100855.79;;;32.85;9.79
55912;BME280;41823;45.534;-73.332;2022-10-16T04:49:13;100859.19;;;32.55;9.72
55912;BME280;41823;45.534;-73.332;2022-10-16T04:51:42;100862.50;;;32.67;9.69
55912;BME280;41823;45.534;-73.332;2022-10-16T04:54:09;100868.17;;;32.37;9.83
55912;BME280;41823;45.534;-73.332;2022-10-16T04:56:37;100869.59;;;32.56;9.88
55912;BME280;41823;45.534;-73.332;2022-10-16T04:59:05;100872.72;;;32.62;9.96
55912;BME280;41823;45.534;-73.332;2022-10-16T05:01:33;100873.28;;;32.83;9.94
55912;BME280;41823;45.534;-73.332;2022-10-16T05:04:01;100878.63;;;32.75;10.07
55912;BME280;41823;45.534;-73.332;2022-10-16T05:06:29;100884.03;;;32.94;9.87
55912;BME280;41823;45.534;-73.332;2022-10-16T05:08:57;100888.95;;;32.32;9.93
55912;BME280;41823;45.534;-73.332;2022-10-16T05:11:25;100890.53;;;32.87;9.97
55912;BME280;41823;45.534;-73.332;2022-10-16T05:13:52;100890.38;;;32.48;10.10
55912;BME280;41823;45.534;-73.332;2022-10-16T05:16:21;100888.83;;;32.96;10.03
55912;BME280;41823;45.534;-73.332;2022-10-16T05:18:48;100892.80;;;32.86;10.04
55912;BME280;41823;45.534;-73.332;2022-10-16T05:21:16;100891.36;;;32.84;9.70
55912;BME280;41823;45.534;-73.332;2022-10-16T05:23:44;100887.33;;;32.70;9.88
55912;BME280;41823;45.534;-73.332;2022-10-16T05:26:12;100892.62;;;32.66;9.89
55912;BME280;41823;45.534;-73.332;2022-10-16T05:28:40;100890.62;;;32.72;10.02
55912;BME280;41823;45.534;-73.332;2022-10-16T05:31:09;100899.10;;;32.33;9.98
55912;BME280;41823;45.534;-73.332;2022-10-16T05:33:38;100897.00;;;32.78;10.07
55912;BME280;41823;45.534;-73.332;2022-10-16T05:36:08;100898.14;;;32.72;10.13
55912;BME280;41823;45.534;-73.332;2022-10-16T05:38:37;100900.51;;;32.46;10.20
55912;BME280;41823;45.534;-73.332;2022-10-16T05:41:06;100898.77;;;32.53;10.27
55912;BME280;41823;45.534;-73.332;2022-10-16T05:43:34;100902.90;;;32.33;10.18
55912;BME280;41823;45.534;-73.332;2022-10-16T05:46:04;100902.33;;;32.74;9.94
55912;BME280;41823;45.534;-73.332;2022-10-16T05:48:33;100903.08;;;32.27;10.12
55912;BME280;41823;45.534;-73.332;2022-10-16T05:51:02;100905.94;;;32.36;9.96
55912;BME280;41823;45.534;-73.332;2022-10-16T05:53:32;100906.93;;;32.37;10.06
55912;BME280;41823;45.534;-73.332;2022-10-16T05:56:00;100905.64;;;32.48;10.06
55912;BME280;41823;45.534;-73.332;2022-10-16T05:58:30;100908.99;;;32.67;10.14
55912;BME280;41823;45.534;-73.332;2022-10-16T06:01:00;100911.99;;;32.67;9.92
55912;BME280;41823;45.534;-73.332;2022-10-16T06:03:29;100912.23;;;32.49;10.03
55912;BME280;41823;45.534;-73.332;2022-10-16T06:05:57;100913.43;;;32.15;10.35
55912;BME280;41823;45.534;-73.332;2022-10-16T06:08:24;100912.41;;;32.26;10.18
55912;BME280;41823;45.534;-73.332;2022-10-16T06:11:01;100911.96;;;32.21;10.22
55912;BME280;41823;45.534;-73.332;2022-10-16T06:13:30;100918.35;;;32.18;10.27
55912;BME280;41823;45.534;-73.332;2022-10-16T06:15:59;100916.41;;;32.26;10.19
55912;BME280;41823;45.534;-73.332;2022-10-16T06:18:28;100918.44;;;32.15;10.29
55912;BME280;41823;45.534;-73.332;2022-10-16T06:20:57;100920.27;;;32.00;10.51
55912;BME280;41823;45.534;-73.332;2022-10-16T06:23:27;100924.93;;;31.88;10.41
55912;BME280;41823;45.534;-73.332;2022-10-16T06:26:05;100925.78;;;32.16;10.59
55912;BME280;41823;45.534;-73.332;2022-10-16T06:28:32;100927.23;;;32.17;10.49
55912;BME280;41823;45.534;-73.332;2022-10-16T06:31:00;100924.51;;;31.84;10.57
55912;BME280;41823;45.534;-73.332;2022-10-16T06:33:28;100924.10;;;32.33;10.76
55912;BME280;41823;45.534;-73.332;2022-10-16T06:36:01;100927.07;;;31.81;10.56
55912;BME280;41823;45.534;-73.332;2022-10-16T06:38:29;100927.01;;;31.75;10.59
55912;BME280;41823;45.534;-73.332;2022-10-16T06:40:58;100927.04;;;32.00;10.71
55912;BME280;41823;45.534;-73.332;2022-10-16T06:43:27;100925.02;;;31.96;10.61
55912;BME280;41823;45.534;-73.332;2022-10-16T06:45:57;100927.30;;;32.12;10.53
55912;BME280;41823;45.534;-73.332;2022-10-16T06:48:25;100922.22;;;31.68;10.83
55912;BME280;41823;45.534;-73.332;2022-10-16T06:50:58;100926.86;;;31.85;10.74
55912;BME280;41823;45.534;-73.332;2022-10-16T06:53:27;100926.03;;;31.87;10.57
55912;BME280;41823;45.534;-73.332;2022-10-16T06:55:55;100929.35;;;32.10;10.80
55912;BME280;41823;45.534;-73.332;2022-10-16T06:58:23;100927.28;;;31.63;10.75
55912;BME280;41823;45.534;-73.332;2022-10-16T07:00:55;100929.21;;;32.02;10.64
55912;BME280;41823;45.534;-73.332;2022-10-16T07:03:23;100924.79;;;31.78;10.72
55912;BME280;41823;45.534;-73.332;2022-10-16T07:05:51;100926.26;;;31.78;10.73
55912;BME280;41823;45.534;-73.332;2022-10-16T07:08:19;100929.93;;;32.05;10.65
55912;BME280;41823;45.534;-73.332;2022-10-16T07:10:47;100928.51;;;31.97;10.67
55912;BME280;41823;45.534;-73.332;2022-10-16T07:13:15;100928.57;;;31.69;11.16
55912;BME280;41823;45.534;-73.332;2022-10-16T07:15:43;100925.99;;;31.82;11.00
55912;BME280;41823;45.534;-73.332;2022-10-16T07:18:11;100925.39;;;31.73;11.06
55912;BME280;41823;45.534;-73.332;2022-10-16T07:20:39;100921.75;;;31.77;10.94
55912;BME280;41823;45.534;-73.332;2022-10-16T07:23:08;100919.91;;;31.97;10.95
55912;BME280;41823;45.534;-73.332;2022-10-16T07:25:36;100921.33;;;32.23;11.05
55912;BME280;41823;45.534;-73.332;2022-10-16T07:28:04;100919.62;;;31.77;10.92
55912;BME280;41823;45.534;-73.332;2022-10-16T07:30:35;100923.58;;;32.03;10.91
55912;BME280;41823;45.534;-73.332;2022-10-16T07:33:03;100923.77;;;31.95;10.82
55912;BME280;41823;45.534;-73.332;2022-10-16T07:35:31;100921.63;;;31.78;10.95
55912;BME280;41823;45.534;-73.332;2022-10-16T07:37:58;100916.65;;;31.95;10.81
55912;BME280;41823;45.534;-73.332;2022-10-16T07:40:27;100919.58;;;31.73;10.85
55912;BME280;41823;45.534;-73.332;2022-10-16T07:42:54;100919.31;;;31.70;10.96
55912;BME280;41823;45.534;-73.332;2022-10-16T07:45:22;100920.40;;;31.65;10.94
55912;BME280;41823;45.534;-73.332;2022-10-16T07:47:50;100923.61;;;32.17;10.85
55912;BME280;41823;45.534;-73.332;2022-10-16T07:50:18;100925.70;;;31.84;10.93
55912;BME280;41823;45.534;-73.332;2022-10-16T07:52:46;100922.12;;;32.01;10.94
55912;BME280;41823;45.534;-73.332;2022-10-16T07:55:14;100926.09;;;32.15;10.84
55912;BME280;41823;45.534;-73.332;2022-10-16T07:57:42;100928.97;;;32.11;10.84
55912;BME280;41823;45.534;-73.332;2022-10-16T08:00:11;100930.66;;;31.64;10.95
55912;BME280;41823;45.534;-73.332;2022-10-16T08:02:39;100929.92;;;31.85;10.79
55912;BME280;41823;45.534;-73.332;2022-10-16T08:05:08;100929.94;;;31.62;10.91
55912;BME280;41823;45.534;-73.332;2022-10-16T08:07:36;100932.06;;;32.04;10.85
55912;BME280;41823;45.534;-73.332;2022-10-16T08:10:04;100932.27;;;31.57;10.92
55912;BME280;41823;45.534;-73.332;2022-10-16T08:12:32;100927.96;;;31.76;10.76
55912;BME280;41823;45.534;-73.332;2022-10-16T08:15:00;100930.37;;;31.92;10.93
55912;BME280;41823;45.534;-73.332;2022-10-16T08:17:28;100932.00;;;31.96;10.89
55912;BME280;41823;45.534;-73.332;2022-10-16T08:19:56;100930.92;;;31.72;10.80
55912;BME280;41823;45.534;-73.332;2022-10-16T08:22:25;100927.62;;;32.02;10.96
55912;BME280;41823;45.534;-73.332;2022-10-16T08:24:53;100928.38;;;31.68;10.94
55912;BME280;41823;45.534;-73.332;2022-10-16T08:27:22;100923.94;;;31.51;10.89
55912;BME280;41823;45.534;-73.332;2022-10-16T08:29:50;100920.73;;;31.30;11.04
55912;BME280;41823;45.534;-73.332;2022-10-16T08:32:18;100926.26;;;31.42;11.09
55912;BME280;41823;45.534;-73.332;2022-10-16T08:34:46;100928.25;;;31.84;11.01
55912;BME280;41823;45.534;-73.332;2022-10-16T08:37:14;100927.70;;;31.43;11.18
55912;BME280;41823;45.534;-73.332;2022-10-16T08:39:42;100927.04;;;31.78;10.93
55912;BME280;41823;45.534;-73.332;2022-10-16T08:42:19;100926.86;;;31.79;10.91
55912;BME280;41823;45.534;-73.332;2022-10-16T08:45:48;100922.59;;;31.59;10.84
55912;BME280;41823;45.534;-73.332;2022-10-16T08:48:26;100916.86;;;31.85;10.94
55912;BME280;41823;45.534;-73.332;2022-10-16T08:50:55;100914.26;;;31.74;10.81
55912;BME280;41823;45.534;-73.332;2022-10-16T08:53:28;100914.60;;;31.89;10.99
55912;BME280;41823;45.534;-73.332;2022-10-16T08:55:58;100917.59;;;31.75;10.93
55912;BME280;41823;45.534;-73.332;2022-10-16T08:58:28;100913.43;;;31.40;10.96
55912;BME280;41823;45.534;-73.332;2022-10-16T09:01:00;100913.38;;;31.88;10.84
55912;BME280;41823;45.534;-73.332;2022-10-16T09:03:40;100914.52;;;31.77;10.77
55912;BME280;41823;45.534;-73.332;2022-10-16T09:06:23;100915.91;;;31.89;10.79
55912;BME280;41823;45.534;-73.332;2022-10-16T09:09:08;100919.15;;;31.40;10.96
55912;BME280;41823;45.534;-73.332;2022-10-16T09:11:46;100916.60;;;31.55;10.89
55912;BME280;41823;45.534;-73.332;2022-10-16T09:14:40;100918.00;;;31.37;10.96
55912;BME280;41823;45.534;-73.332;2022-10-16T09:17:26;100918.84;;;31.46;10.89
55912;BME280;41823;45.534;-73.332;2022-10-16T09:20:13;100917.69;;;31.38;11.03
55912;BME280;41823;45.534;-73.332;2022-10-16T09:22:42;100915.57;;;31.69;11.04
55912;BME280;41823;45.534;-73.332;2022-10-16T09:25:13;100918.09;;;31.25;10.99
55912;BME280;41823;45.534;-73.332;2022-10-16T09:27:43;100919.09;;;31.32;10.93
55912;BME280;41823;45.534;-73.332;2022-10-16T09:30:15;100913.37;;;31.50;10.94
55912;BME280;41823;45.534;-73.332;2022-10-16T09:32:44;100915.64;;;31.81;10.76
55912;BME280;41823;45.534;-73.332;2022-10-16T09:35:16;100913.88;;;31.65;10.82
55912;BME280;41823;45.534;-73.332;2022-10-16T09:37:48;100917.97;;;31.84;10.80
55912;BME280;41823;45.534;-73.332;2022-10-16T09:40:25;100915.12;;;31.52;10.82
55912;BME280;41823;45.534;-73.332;2022-10-16T09:43:01;100919.89;;;31.61;10.88
55912;BME280;41823;45.534;-73.332;2022-10-16T09:45:29;100917.12;;;31.31;10.82
55912;BME280;41823;45.534;-73.332;2022-10-16T09:47:57;100917.79;;;31.64;10.82
55912;BME280;41823;45.534;-73.332;2022-10-16T09:50:27;100918.24;;;31.80;10.81
55912;BME280;41823;45.534;-73.332;2022-10-16T09:53:13;100919.54;;;31.75;10.84
55912;BME280;41823;45.534;-73.332;2022-10-16T09:55:48;100923.65;;;31.92;10.72
55912;BME280;41823;45.534;-73.332;2022-10-16T09:58:17;100925.04;;;31.59;10.72
55912;BME280;41823;45.534;-73.332;2022-10-16T10:00:50;100920.75;;;31.45;10.88
55912;BME280;41823;45.534;-73.332;2022-10-16T10:03:33;100924.96;;;31.47;10.74
55912;BME280;41823;45.534;-73.332;2022-10-16T10:06:16;100928.91;;;31.67;10.72
55912;BME280;41823;45.534;-73.332;2022-10-16T10:09:19;100930.53;;;31.77;10.60
55912;BME280;41823;45.534;-73.332;2022-10-16T10:11:51;100930.36;;;32.01;10.49
55912;BME280;41823;45.534;-73.332;2022-10-16T10:14:23;100929.43;;;31.99;10.53
55912;BME280;41823;45.534;-73.332;2022-10-16T10:17:00;100929.45;;;31.64;10.70
55912;BME280;41823;45.534;-73.332;2022-10-16T10:19:28;100932.76;;;31.38;10.71
55912;BME280;41823;45.534;-73.332;2022-10-16T10:21:56;100930.24;;;31.24;10.75
55912;BME280;41823;45.534;-73.332;2022-10-16T10:24:24;100932.69;;;31.79;10.57
55912;BME280;41823;45.534;-73.332;2022-10-16T10:27:00;100933.13;;;31.43;10.49
55912;BME280;41823;45.534;-73.332;2022-10-16T10:29:40;100929.45;;;31.13;10.50
55912;BME280;41823;45.534;-73.332;2022-10-16T10:32:23;100931.96;;;31.62;10.49
55912;BME280;41823;45.534;-73.332;2022-10-16T10:35:11;100930.87;;;31.60;10.48
55912;BME280;41823;45.534;-73.332;2022-10-16T10:37:51;100929.72;;;31.46;10.41
55912;BME280;41823;45.534;-73.332;2022-10-16T10:40:34;100927.31;;;31.55;10.51
55912;BME280;41823;45.534;-73.332;2022-10-16T10:43:10;100924.57;;;31.31;10.51
55912;BME280;41823;45.534;-73.332;2022-10-16T10:45:44;100920.45;;;31.04;10.73
55912;BME280;41823;45.534;-73.332;2022-10-16T10:48:24;100920.37;;;31.46;10.69
55912;BME280;41823;45.534;-73.332;2022-10-16T10:51:00;100919.18;;;31.45;10.68
55912;BME280;41823;45.534;-73.332;2022-10-16T10:53:38;100915.92;;;31.17;10.52
55912;BME280;41823;45.534;-73.332;2022-10-16T10:56:22;100915.55;;;30.99;10.61
55912;BME280;41823;45.534;-73.332;2022-10-16T10:59:06;100916.79;;;31.52;10.59
55912;BME280;41823;45.534;-73.332;2022-10-16T11:01:44;100910.57;;;31.34;10.57
55912;BME280;41823;45.534;-73.332;2022-10-16T11:06:46;100915.32;;;31.74;10.70
55912;BME280;41823;45.534;-73.332;2022-10-16T11:09:17;100911.17;;;31.45;10.61
55912;BME280;41823;45.534;-73.332;2022-10-16T11:11:52;100910.80;;;31.22;10.57
55912;BME280;41823;45.534;-73.332;2022-10-16T11:14:28;100914.87;;;31.11;10.55
55912;BME280;41823;45.534;-73.332;2022-10-16T11:17:04;100912.58;;;31.23;10.64
55912;BME280;41823;45.534;-73.332;2022-10-16T11:19:39;100912.95;;;31.38;10.67
55912;BME280;41823;45.534;-73.332;2022-10-16T11:22:15;100908.36;;;31.06;10.87
55912;BME280;41823;45.534;-73.332;2022-10-16T11:24:48;100909.86;;;31.11;10.91
55912;BME280;41823;45.534;-73.332;2022-10-16T11:30:12;100903.90;;;31.47;10.76
55912;BME280;41823;45.534;-73.332;2022-10-16T11:32:54;100910.13;;;31.36;10.70
55912;BME280;41823;45.534;-73.332;2022-10-16T11:35:28;100909.93;;;31.09;10.87
55912;BME280;41823;45.534;-73.332;2022-10-16T11:38:03;100907.87;;;31.14;10.81
55912;BME280;41823;45.534;-73.332;2022-10-16T11:40:33;100911.73;;;31.25;10.85
55912;BME280;41823;45.534;-73.332;2022-10-16T11:43:10;100911.01;;;31.26;10.88
55912;BME280;41823;45.534;-73.332;2022-10-16T11:45:42;100921.86;;;30.93;10.93
55912;BME280;41823;45.534;-73.332;2022-10-16T11:48:23;100921.79;;;30.94;10.77
55912;BME280;41823;45.534;-73.332;2022-10-16T11:50:56;100917.05;;;31.67;10.72
55912;BME280;41823;45.534;-73.332;2022-10-16T11:53:34;100920.34;;;31.32;10.89
55912;BME280;41823;45.534;-73.332;2022-10-16T11:56:05;100921.89;;;31.30;10.79
55912;BME280;41823;45.534;-73.332;2022-10-16T11:58:39;100914.75;;;31.49;10.80
55912;BME280;41823;45.534;-73.332;2022-10-16T12:01:18;100919.79;;;31.43;10.87
55912;BME280;41823;45.534;-73.332;2022-10-16T12:03:58;100921.43;;;31.42;10.74
55912;BME280;41823;45.534;-73.332;2022-10-16T12:06:35;100922.62;;;31.26;10.85
55912;BME280;41823;45.534;-73.332;2022-10-16T12:09:05;100925.30;;;31.43;10.93
55912;BME280;41823;45.534;-73.332;2022-10-16T12:11:36;100921.25;;;31.14;11.02
55912;BME280;41823;45.534;-73.332;2022-10-16T12:14:07;100919.45;;;31.17;10.89
55912;BME280;41823;45.534;-73.332;2022-10-16T12:16:53;100919.72;;;31.56;11.05
55912;BME280;41823;45.534;-73.332;2022-10-16T12:19:22;100921.15;;;31.62;11.04
55912;BME280;41823;45.534;-73.332;2022-10-16T12:21:51;100921.26;;;31.72;11.00
55912;BME280;41823;45.534;-73.332;2022-10-16T12:24:34;100926.37;;;31.80;11.00
55912;BME280;41823;45.534;-73.332;2022-10-16T12:27:05;100920.93;;;31.51;11.07
55912;BME280;41823;45.534;-73.332;2022-10-16T12:29:37;100920.43;;;31.53;11.10
55912;BME280;41823;45.534;-73.332;2022-10-16T12:32:19;100917.69;;;31.29;11.16
55912;BME280;41823;45.534;-73.332;2022-10-16T12:34:51;100917.68;;;31.84;11.19
55912;BME280;41823;45.534;-73.332;2022-10-16T12:37:22;100922.01;;;31.41;11.35
55912;BME280;41823;45.534;-73.332;2022-10-16T12:39:52;100926.58;;;31.43;11.45
55912;BME280;41823;45.534;-73.332;2022-10-16T12:42:31;100928.13;;;31.42;11.58
55912;BME280;41823;45.534;-73.332;2022-10-16T12:45:00;100928.58;;;31.84;11.25
55912;BME280;41823;45.534;-73.332;2022-10-16T12:47:38;100928.81;;;31.50;11.34
55912;BME280;41823;45.534;-73.332;2022-10-16T12:50:33;100929.24;;;31.79;11.33
55912;BME280;41823;45.534;-73.332;2022-10-16T12:53:04;100933.34;;;31.22;11.26
55912;BME280;41823;45.534;-73.332;2022-10-16T12:55:55;100929.00;;;31.68;11.24
55912;BME280;41823;45.534;-73.332;2022-10-16T12:58:40;100935.46;;;31.65;10.93